sensor_id;sensor_type;location;lat;lon;timestamp;P1;durP1;ratioP1;P2;durP2;ratioP2
38859;SDS011;24609;48.316;16.174;2024-01-10T00:01:23;68.07;;;31.25;;
38859;SDS011;24609;48.316;16.174;2024-01-10T00:03:52;77.97;;;32.85;;
38859;SDS011;24609;48.316;16.174;2024-01-10T00:06:20;72.95;;;32.10;;
38859;SDS011;24609;48.316;16.174;2024-01-10T00:08:46;71.43;;;32.17;;
38859;SDS011;24609;48.316;16.174;2024-01-10T00:11:12;77.72;;;32.20;;
38859;SDS011;24609;48.316;16.174;2024-01-10T00:13:38;75.07;;;33.08;;
38859;SDS011;24609;48.316;16.174;2024-01-10T00:16:03;74.13;;;32.47;;
38859;SDS011;24609;48.316;16.174;2024-01-10T00:18:30;68.82;;;31.35;;
38859;SDS011;24609;48.316;16.174;2024-01-10T00:20:55;82.10;;;34.55;;
38859;SDS011;24609;48.316;16.174;2024-01-10T00:23:21;74.85;;;33.65;;
38859;SDS011;24609;48.316;16.174;2024-01-10T00:25:47;73.82;;;32.20;;
38859;SDS011;24609;48.316;16.174;2024-01-10T00:28:13;78.35;;;33.25;;
38859;SDS011;24609;48.316;16.174;2024-01-10T00:30:41;71.33;;;30.80;;
38859;SDS011;24609;48.316;16.174;2024-01-10T00:33:07;83.72;;;33.08;;
38859;SDS011;24609;48.316;16.174;2024-01-10T00:35:33;75.25;;;33.17;;
38859;SDS011;24609;48.316;16.174;2024-01-10T00:37:58;77.50;;;33.85;;
38859;SDS011;24609;48.316;16.174;2024-01-10T00:40:24;71.93;;;32.65;;
38859;SDS011;24609;48.316;16.174;2024-01-10T00:42:50;70.68;;;32.05;;
38859;SDS011;24609;48.316;16.174;2024-01-10T00:45:16;72.53;;;32.65;;
38859;SDS011;24609;48.316;16.174;2024-01-10T00:47:42;71.88;;;34.58;;
38859;SDS011;24609;48.316;16.174;2024-01-10T00:50:08;80.47;;;34.20;;
38859;SDS011;24609;48.316;16.174;2024-01-10T00:52:34;74.05;;;32.22;;
38859;SDS011;24609;48.316;16.174;2024-01-10T00:54:59;76.93;;;33.10;;
38859;SDS011;24609;48.316;16.174;2024-01-10T00:57:25;75.43;;;33.15;;
38859;SDS011;24609;48.316;16.174;2024-01-10T00:59:51;76.90;;;31.60;;
38859;SDS011;24609;48.316;16.174;2024-01-10T01:02:16;76.90;;;33.35;;
38859;SDS011;24609;48.316;16.174;2024-01-10T01:04:42;80.07;;;34.10;;
38859;SDS011;24609;48.316;16.174;2024-01-10T01:07:08;75.18;;;33.95;;
38859;SDS011;24609;48.316;16.174;2024-01-10T01:09:34;80.28;;;32.88;;
38859;SDS011;24609;48.316;16.174;2024-01-10T01:11:59;78.40;;;33.67;;
38859;SDS011;24609;48.316;16.174;2024-01-10T01:14:25;72.47;;;32.78;;
38859;SDS011;24609;48.316;16.174;2024-01-10T01:16:51;73.90;;;31.63;;
38859;SDS011;24609;48.316;16.174;2024-01-10T01:19:17;72.50;;;32.33;;
38859;SDS011;24609;48.316;16.174;2024-01-10T01:21:42;72.97;;;32.95;;
38859;SDS011;24609;48.316;16.174;2024-01-10T01:24:08;83.22;;;35.72;;
38859;SDS011;24609;48.316;16.174;2024-01-10T01:26:34;88.68;;;33.28;;
38859;SDS011;24609;48.316;16.174;2024-01-10T01:29:00;85.00;;;32.60;;
38859;SDS011;24609;48.316;16.174;2024-01-10T01:31:26;79.78;;;32.88;;
38859;SDS011;24609;48.316;16.174;2024-01-10T01:33:51;75.03;;;33.30;;
38859;SDS011;24609;48.316;16.174;2024-01-10T01:36:17;77.82;;;34.38;;
38859;SDS011;24609;48.316;16.174;2024-01-10T01:38:43;84.95;;;35.70;;
38859;SDS011;24609;48.316;16.174;2024-01-10T01:41:09;74.45;;;34.03;;
38859;SDS011;24609;48.316;16.174;2024-01-10T01:43:35;84.18;;;35.30;;
38859;SDS011;24609;48.316;16.174;2024-01-10T01:46:00;77.78;;;34.45;;
38859;SDS011;24609;48.316;16.174;2024-01-10T01:48:27;82.30;;;35.47;;
38859;SDS011;24609;48.316;16.174;2024-01-10T01:50:57;85.07;;;34.78;;
38859;SDS011;24609;48.316;16.174;2024-01-10T01:53:25;83.05;;;35.47;;
38859;SDS011;24609;48.316;16.174;2024-01-10T01:55:53;80.18;;;35.40;;
38859;SDS011;24609;48.316;16.174;2024-01-10T01:58:20;77.18;;;33.15;;
38859;SDS011;24609;48.316;16.174;2024-01-10T02:00:47;76.78;;;33.30;;
38859;SDS011;24609;48.316;16.174;2024-01-10T02:03:14;74.78;;;31.42;;
38859;SDS011;24609;48.316;16.174;2024-01-10T02:05:40;75.72;;;32.63;;
38859;SDS011;24609;48.316;16.174;2024-01-10T02:08:06;70.97;;;31.77;;
38859;SDS011;24609;48.316;16.174;2024-01-10T02:10:33;75.45;;;32.85;;
38859;SDS011;24609;48.316;16.174;2024-01-10T02:12:59;76.57;;;33.67;;
38859;SDS011;24609;48.316;16.174;2024-01-10T02:15:26;74.72;;;33.53;;
38859;SDS011;24609;48.316;16.174;2024-01-10T02:17:51;81.18;;;34.67;;
38859;SDS011;24609;48.316;16.174;2024-01-10T02:20:17;65.55;;;30.98;;
38859;SDS011;24609;48.316;16.174;2024-01-10T02:22:43;66.13;;;32.03;;
38859;SDS011;24609;48.316;16.174;2024-01-10T02:25:10;63.53;;;29.67;;
38859;SDS011;24609;48.316;16.174;2024-01-10T02:27:36;62.90;;;27.90;;
38859;SDS011;24609;48.316;16.174;2024-01-10T02:30:03;62.85;;;28.42;;
38859;SDS011;24609;48.316;16.174;2024-01-10T02:32:30;64.40;;;29.13;;
38859;SDS011;24609;48.316;16.174;2024-01-10T02:34:56;61.38;;;27.63;;
38859;SDS011;24609;48.316;16.174;2024-01-10T02:37:22;56.45;;;26.63;;
38859;SDS011;24609;48.316;16.174;2024-01-10T02:39:47;56.90;;;28.33;;
38859;SDS011;24609;48.316;16.174;2024-01-10T02:42:13;63.13;;;27.92;;
38859;SDS011;24609;48.316;16.174;2024-01-10T02:44:39;55.55;;;26.35;;
38859;SDS011;24609;48.316;16.174;2024-01-10T02:47:05;55.85;;;26.67;;
38859;SDS011;24609;48.316;16.174;2024-01-10T02:49:32;63.08;;;28.67;;
38859;SDS011;24609;48.316;16.174;2024-01-10T02:51:59;62.05;;;29.27;;
38859;SDS011;24609;48.316;16.174;2024-01-10T02:54:25;61.97;;;27.38;;
38859;SDS011;24609;48.316;16.174;2024-01-10T02:56:51;64.18;;;28.08;;
38859;SDS011;24609;48.316;16.174;2024-01-10T02:59:16;53.45;;;26.48;;
38859;SDS011;24609;48.316;16.174;2024-01-10T03:01:42;66.82;;;28.92;;
38859;SDS011;24609;48.316;16.174;2024-01-10T03:04:08;63.05;;;28.30;;
38859;SDS011;24609;48.316;16.174;2024-01-10T03:06:34;63.45;;;27.73;;
38859;SDS011;24609;48.316;16.174;2024-01-10T03:09:00;62.47;;;26.48;;
38859;SDS011;24609;48.316;16.174;2024-01-10T03:11:25;60.22;;;27.83;;
38859;SDS011;24609;48.316;16.174;2024-01-10T03:13:53;68.13;;;28.80;;
38859;SDS011;24609;48.316;16.174;2024-01-10T03:16:32;66.00;;;29.33;;
38859;SDS011;24609;48.316;16.174;2024-01-10T03:18:58;63.60;;;29.25;;
38859;SDS011;24609;48.316;16.174;2024-01-10T03:21:23;61.75;;;28.38;;
38859;SDS011;24609;48.316;16.174;2024-01-10T03:23:52;64.97;;;28.88;;
38859;SDS011;24609;48.316;16.174;2024-01-10T03:26:20;45.83;;;21.23;;
38859;SDS011;24609;48.316;16.174;2024-01-10T03:28:46;57.70;;;26.98;;
38859;SDS011;24609;48.316;16.174;2024-01-10T03:31:11;68.18;;;29.85;;
38859;SDS011;24609;48.316;16.174;2024-01-10T03:33:37;57.00;;;27.45;;
38859;SDS011;24609;48.316;16.174;2024-01-10T03:36:03;60.45;;;27.13;;
38859;SDS011;24609;48.316;16.174;2024-01-10T03:38:30;65.53;;;28.55;;
38859;SDS011;24609;48.316;16.174;2024-01-10T03:40:55;55.95;;;25.95;;
38859;SDS011;24609;48.316;16.174;2024-01-10T03:43:21;62.53;;;28.13;;
38859;SDS011;24609;48.316;16.174;2024-01-10T03:45:47;66.70;;;29.90;;
38859;SDS011;24609;48.316;16.174;2024-01-10T03:48:12;70.85;;;29.42;;
38859;SDS011;24609;48.316;16.174;2024-01-10T03:50:38;68.68;;;32.28;;
38859;SDS011;24609;48.316;16.174;2024-01-10T03:53:03;71.18;;;31.83;;
38859;SDS011;24609;48.316;16.174;2024-01-10T03:55:29;69.20;;;31.58;;
38859;SDS011;24609;48.316;16.174;2024-01-10T03:57:55;64.60;;;29.55;;
38859;SDS011;24609;48.316;16.174;2024-01-10T04:00:21;61.90;;;28.85;;
38859;SDS011;24609;48.316;16.174;2024-01-10T04:02:47;73.28;;;34.13;;
38859;SDS011;24609;48.316;16.174;2024-01-10T04:05:13;74.47;;;33.88;;
38859;SDS011;24609;48.316;16.174;2024-01-10T04:07:42;73.43;;;31.48;;
38859;SDS011;24609;48.316;16.174;2024-01-10T04:10:08;69.90;;;32.47;;
38859;SDS011;24609;48.316;16.174;2024-01-10T04:12:38;80.60;;;34.95;;
38859;SDS011;24609;48.316;16.174;2024-01-10T04:15:04;79.18;;;36.10;;
38859;SDS011;24609;48.316;16.174;2024-01-10T04:17:30;70.32;;;33.20;;
38859;SDS011;24609;48.316;16.174;2024-01-10T04:19:56;72.75;;;33.72;;
38859;SDS011;24609;48.316;16.174;2024-01-10T04:22:23;72.43;;;32.03;;
38859;SDS011;24609;48.316;16.174;2024-01-10T04:24:50;65.57;;;30.73;;
38859;SDS011;24609;48.316;16.174;2024-01-10T04:27:16;72.35;;;32.03;;
38859;SDS011;24609;48.316;16.174;2024-01-10T04:29:43;67.68;;;30.92;;
38859;SDS011;24609;48.316;16.174;2024-01-10T04:32:08;71.00;;;31.75;;
38859;SDS011;24609;48.316;16.174;2024-01-10T04:34:34;77.53;;;32.45;;
38859;SDS011;24609;48.316;16.174;2024-01-10T04:37:00;70.38;;;30.50;;
38859;SDS011;24609;48.316;16.174;2024-01-10T04:39:26;70.82;;;32.25;;
38859;SDS011;24609;48.316;16.174;2024-01-10T04:41:51;72.68;;;32.08;;
38859;SDS011;24609;48.316;16.174;2024-01-10T04:44:17;70.72;;;31.17;;
38859;SDS011;24609;48.316;16.174;2024-01-10T04:46:43;65.15;;;28.75;;
38859;SDS011;24609;48.316;16.174;2024-01-10T04:49:09;72.35;;;32.92;;
38859;SDS011;24609;48.316;16.174;2024-01-10T04:51:35;80.35;;;35.40;;
38859;SDS011;24609;48.316;16.174;2024-01-10T04:54:00;67.65;;;31.35;;
38859;SDS011;24609;48.316;16.174;2024-01-10T04:56:26;72.78;;;32.90;;
38859;SDS011;24609;48.316;16.174;2024-01-10T04:58:52;70.40;;;32.88;;
38859;SDS011;24609;48.316;16.174;2024-01-10T05:01:18;76.30;;;33.97;;
38859;SDS011;24609;48.316;16.174;2024-01-10T05:03:43;77.03;;;33.75;;
38859;SDS011;24609;48.316;16.174;2024-01-10T05:06:09;71.75;;;32.22;;
38859;SDS011;24609;48.316;16.174;2024-01-10T05:08:35;72.25;;;33.55;;
38859;SDS011;24609;48.316;16.174;2024-01-10T05:11:01;77.75;;;33.75;;
38859;SDS011;24609;48.316;16.174;2024-01-10T05:13:27;72.38;;;32.90;;
38859;SDS011;24609;48.316;16.174;2024-01-10T05:15:53;73.10;;;32.70;;
38859;SDS011;24609;48.316;16.174;2024-01-10T05:18:20;68.85;;;31.35;;
38859;SDS011;24609;48.316;16.174;2024-01-10T05:20:46;74.45;;;33.08;;
38859;SDS011;24609;48.316;16.174;2024-01-10T05:23:12;75.10;;;33.20;;
38859;SDS011;24609;48.316;16.174;2024-01-10T05:25:38;66.15;;;32.40;;
38859;SDS011;24609;48.316;16.174;2024-01-10T05:28:04;72.75;;;34.00;;
38859;SDS011;24609;48.316;16.174;2024-01-10T05:30:30;74.88;;;34.25;;
38859;SDS011;24609;48.316;16.174;2024-01-10T05:32:57;59.83;;;28.73;;
38859;SDS011;24609;48.316;16.174;2024-01-10T05:35:26;74.82;;;34.72;;
38859;SDS011;24609;48.316;16.174;2024-01-10T05:37:52;57.13;;;26.35;;
38859;SDS011;24609;48.316;16.174;2024-01-10T05:40:18;65.80;;;29.38;;
38859;SDS011;24609;48.316;16.174;2024-01-10T05:42:47;72.75;;;32.60;;
38859;SDS011;24609;48.316;16.174;2024-01-10T05:45:12;74.50;;;32.92;;
38859;SDS011;24609;48.316;16.174;2024-01-10T05:47:38;68.55;;;30.58;;
38859;SDS011;24609;48.316;16.174;2024-01-10T05:50:04;70.35;;;31.05;;
38859;SDS011;24609;48.316;16.174;2024-01-10T05:52:33;68.03;;;30.35;;
38859;SDS011;24609;48.316;16.174;2024-01-10T05:54:58;62.83;;;30.60;;
38859;SDS011;24609;48.316;16.174;2024-01-10T05:57:26;70.80;;;31.88;;
38859;SDS011;24609;48.316;16.174;2024-01-10T05:59:52;63.50;;;30.45;;
38859;SDS011;24609;48.316;16.174;2024-01-10T06:02:21;74.25;;;32.67;;
38859;SDS011;24609;48.316;16.174;2024-01-10T06:04:49;73.03;;;32.90;;
38859;SDS011;24609;48.316;16.174;2024-01-10T06:07:15;72.18;;;33.22;;
38859;SDS011;24609;48.316;16.174;2024-01-10T06:09:41;69.70;;;31.40;;
38859;SDS011;24609;48.316;16.174;2024-01-10T06:12:08;68.38;;;31.77;;
38859;SDS011;24609;48.316;16.174;2024-01-10T06:14:34;74.32;;;31.77;;
38859;SDS011;24609;48.316;16.174;2024-01-10T06:17:01;76.90;;;33.72;;
38859;SDS011;24609;48.316;16.174;2024-01-10T06:19:28;76.85;;;32.95;;
38859;SDS011;24609;48.316;16.174;2024-01-10T06:21:57;59.53;;;26.98;;
38859;SDS011;24609;48.316;16.174;2024-01-10T06:24:23;77.80;;;34.38;;
38859;SDS011;24609;48.316;16.174;2024-01-10T06:26:49;71.90;;;33.67;;
38859;SDS011;24609;48.316;16.174;2024-01-10T06:29:15;78.93;;;35.10;;
38859;SDS011;24609;48.316;16.174;2024-01-10T06:31:41;75.50;;;33.38;;
38859;SDS011;24609;48.316;16.174;2024-01-10T06:34:07;79.28;;;32.75;;
38859;SDS011;24609;48.316;16.174;2024-01-10T06:36:33;73.70;;;33.13;;
38859;SDS011;24609;48.316;16.174;2024-01-10T06:38:59;73.72;;;33.35;;
38859;SDS011;24609;48.316;16.174;2024-01-10T06:41:25;76.55;;;32.10;;
38859;SDS011;24609;48.316;16.174;2024-01-10T06:43:51;71.65;;;31.23;;
38859;SDS011;24609;48.316;16.174;2024-01-10T06:46:17;77.40;;;34.75;;
38859;SDS011;24609;48.316;16.174;2024-01-10T06:48:43;71.28;;;35.03;;
38859;SDS011;24609;48.316;16.174;2024-01-10T06:51:09;73.20;;;34.67;;
38859;SDS011;24609;48.316;16.174;2024-01-10T06:53:36;74.68;;;36.33;;
38859;SDS011;24609;48.316;16.174;2024-01-10T06:56:02;79.07;;;35.28;;
38859;SDS011;24609;48.316;16.174;2024-01-10T06:58:28;73.95;;;34.33;;
38859;SDS011;24609;48.316;16.174;2024-01-10T07:00:53;79.97;;;35.85;;
38859;SDS011;24609;48.316;16.174;2024-01-10T07:03:19;73.13;;;34.03;;
38859;SDS011;24609;48.316;16.174;2024-01-10T07:05:45;85.43;;;34.08;;
38859;SDS011;24609;48.316;16.174;2024-01-10T07:08:10;80.32;;;34.60;;
38859;SDS011;24609;48.316;16.174;2024-01-10T07:10:36;75.38;;;34.92;;
38859;SDS011;24609;48.316;16.174;2024-01-10T07:13:03;79.25;;;34.53;;
38859;SDS011;24609;48.316;16.174;2024-01-10T07:15:29;73.88;;;35.83;;
38859;SDS011;24609;48.316;16.174;2024-01-10T07:17:55;73.68;;;33.78;;
38859;SDS011;24609;48.316;16.174;2024-01-10T07:20:21;80.55;;;35.20;;
38859;SDS011;24609;48.316;16.174;2024-01-10T07:22:49;81.32;;;38.10;;
38859;SDS011;24609;48.316;16.174;2024-01-10T07:25:16;80.00;;;35.17;;
38859;SDS011;24609;48.316;16.174;2024-01-10T07:27:45;73.53;;;34.17;;
38859;SDS011;24609;48.316;16.174;2024-01-10T07:30:11;78.63;;;33.88;;
38859;SDS011;24609;48.316;16.174;2024-01-10T07:32:44;80.72;;;36.65;;
38859;SDS011;24609;48.316;16.174;2024-01-10T07:35:11;74.82;;;35.03;;
38859;SDS011;24609;48.316;16.174;2024-01-10T07:37:39;79.55;;;36.10;;
38859;SDS011;24609;48.316;16.174;2024-01-10T07:40:08;81.00;;;36.05;;
38859;SDS011;24609;48.316;16.174;2024-01-10T07:42:38;78.00;;;35.03;;
38859;SDS011;24609;48.316;16.174;2024-01-10T07:45:04;74.85;;;35.65;;
38859;SDS011;24609;48.316;16.174;2024-01-10T07:47:31;78.47;;;36.33;;
38859;SDS011;24609;48.316;16.174;2024-01-10T07:49:59;78.63;;;36.10;;
38859;SDS011;24609;48.316;16.174;2024-01-10T07:52:24;76.63;;;35.20;;
38859;SDS011;24609;48.316;16.174;2024-01-10T07:54:50;72.75;;;35.58;;
38859;SDS011;24609;48.316;16.174;2024-01-10T07:57:16;80.55;;;36.65;;
38859;SDS011;24609;48.316;16.174;2024-01-10T07:59:43;74.72;;;33.50;;
38859;SDS011;24609;48.316;16.174;2024-01-10T08:02:10;69.80;;;33.50;;
38859;SDS011;24609;48.316;16.174;2024-01-10T08:04:36;66.75;;;32.80;;
38859;SDS011;24609;48.316;16.174;2024-01-10T08:07:02;76.93;;;34.75;;
38859;SDS011;24609;48.316;16.174;2024-01-10T08:09:28;57.53;;;28.23;;
38859;SDS011;24609;48.316;16.174;2024-01-10T08:11:54;61.55;;;29.60;;
38859;SDS011;24609;48.316;16.174;2024-01-10T08:14:20;57.30;;;26.13;;
38859;SDS011;24609;48.316;16.174;2024-01-10T08:16:45;57.47;;;28.33;;
38859;SDS011;24609;48.316;16.174;2024-01-10T08:19:11;52.78;;;26.88;;
38859;SDS011;24609;48.316;16.174;2024-01-10T08:21:37;52.25;;;26.65;;
38859;SDS011;24609;48.316;16.174;2024-01-10T08:24:02;63.55;;;31.73;;
38859;SDS011;24609;48.316;16.174;2024-01-10T08:26:28;57.35;;;28.55;;
38859;SDS011;24609;48.316;16.174;2024-01-10T08:28:56;53.95;;;26.38;;
38859;SDS011;24609;48.316;16.174;2024-01-10T08:31:22;57.85;;;27.75;;
38859;SDS011;24609;48.316;16.174;2024-01-10T08:33:48;55.92;;;28.75;;
38859;SDS011;24609;48.316;16.174;2024-01-10T08:36:14;57.13;;;27.98;;
38859;SDS011;24609;48.316;16.174;2024-01-10T08:38:41;56.47;;;29.60;;
38859;SDS011;24609;48.316;16.174;2024-01-10T08:41:10;57.00;;;28.13;;
38859;SDS011;24609;48.316;16.174;2024-01-10T08:43:38;53.83;;;28.60;;
38859;SDS011;24609;48.316;16.174;2024-01-10T08:46:04;55.53;;;29.55;;
38859;SDS011;24609;48.316;16.174;2024-01-10T08:48:29;52.92;;;27.73;;
38859;SDS011;24609;48.316;16.174;2024-01-10T08:50:55;52.42;;;28.00;;
38859;SDS011;24609;48.316;16.174;2024-01-10T08:53:21;54.20;;;29.80;;
38859;SDS011;24609;48.316;16.174;2024-01-10T08:55:47;56.83;;;30.98;;
38859;SDS011;24609;48.316;16.174;2024-01-10T08:58:13;53.65;;;28.23;;
38859;SDS011;24609;48.316;16.174;2024-01-10T09:00:39;59.35;;;30.58;;
38859;SDS011;24609;48.316;16.174;2024-01-10T09:03:04;55.72;;;29.33;;
38859;SDS011;24609;48.316;16.174;2024-01-10T09:05:30;48.22;;;25.88;;
38859;SDS011;24609;48.316;16.174;2024-01-10T09:07:56;50.45;;;26.42;;
38859;SDS011;24609;48.316;16.174;2024-01-10T09:10:22;55.58;;;29.20;;
38859;SDS011;24609;48.316;16.174;2024-01-10T09:12:48;49.85;;;25.63;;
38859;SDS011;24609;48.316;16.174;2024-01-10T09:15:13;53.63;;;27.25;;
38859;SDS011;24609;48.316;16.174;2024-01-10T09:17:40;50.38;;;28.90;;
38859;SDS011;24609;48.316;16.174;2024-01-10T09:20:07;48.80;;;26.98;;
38859;SDS011;24609;48.316;16.174;2024-01-10T09:22:33;44.63;;;23.50;;
38859;SDS011;24609;48.316;16.174;2024-01-10T09:24:59;44.67;;;24.60;;
38859;SDS011;24609;48.316;16.174;2024-01-10T09:27:29;41.78;;;23.80;;
38859;SDS011;24609;48.316;16.174;2024-01-10T09:29:55;45.78;;;23.20;;
38859;SDS011;24609;48.316;16.174;2024-01-10T09:32:21;36.75;;;21.13;;
38859;SDS011;24609;48.316;16.174;2024-01-10T09:34:47;40.22;;;22.85;;
38859;SDS011;24609;48.316;16.174;2024-01-10T09:37:13;46.60;;;23.23;;
38859;SDS011;24609;48.316;16.174;2024-01-10T09:39:38;41.53;;;23.10;;
38859;SDS011;24609;48.316;16.174;2024-01-10T09:42:06;37.05;;;19.77;;
38859;SDS011;24609;48.316;16.174;2024-01-10T09:44:32;42.03;;;21.25;;
38859;SDS011;24609;48.316;16.174;2024-01-10T09:46:58;35.58;;;20.58;;
38859;SDS011;24609;48.316;16.174;2024-01-10T09:49:25;38.20;;;21.02;;
38859;SDS011;24609;48.316;16.174;2024-01-10T09:51:53;37.40;;;21.10;;
38859;SDS011;24609;48.316;16.174;2024-01-10T09:54:24;36.53;;;21.08;;
38859;SDS011;24609;48.316;16.174;2024-01-10T09:56:51;37.78;;;21.25;;
38859;SDS011;24609;48.316;16.174;2024-01-10T09:59:18;39.80;;;20.58;;
38859;SDS011;24609;48.316;16.174;2024-01-10T10:01:43;34.45;;;19.60;;
38859;SDS011;24609;48.316;16.174;2024-01-10T10:04:09;38.13;;;20.00;;
38859;SDS011;24609;48.316;16.174;2024-01-10T10:06:37;38.30;;;20.33;;
38859;SDS011;24609;48.316;16.174;2024-01-10T10:09:03;35.55;;;19.65;;
38859;SDS011;24609;48.316;16.174;2024-01-10T10:11:29;34.42;;;19.05;;
38859;SDS011;24609;48.316;16.174;2024-01-10T10:13:55;30.38;;;17.23;;
38859;SDS011;24609;48.316;16.174;2024-01-10T10:16:23;32.83;;;17.92;;
38859;SDS011;24609;48.316;16.174;2024-01-10T10:18:52;34.17;;;20.45;;
38859;SDS011;24609;48.316;16.174;2024-01-10T10:21:23;33.25;;;18.23;;
38859;SDS011;24609;48.316;16.174;2024-01-10T10:24:01;32.00;;;18.98;;
38859;SDS011;24609;48.316;16.174;2024-01-10T10:26:29;31.27;;;17.83;;
38859;SDS011;24609;48.316;16.174;2024-01-10T10:31:23;34.65;;;17.70;;
38859;SDS011;24609;48.316;16.174;2024-01-10T10:33:50;40.90;;;20.65;;
38859;SDS011;24609;48.316;16.174;2024-01-10T10:36:16;34.20;;;18.23;;
38859;SDS011;24609;48.316;16.174;2024-01-10T10:38:42;34.60;;;19.40;;
38859;SDS011;24609;48.316;16.174;2024-01-10T10:41:08;38.83;;;20.67;;
38859;SDS011;24609;48.316;16.174;2024-01-10T10:43:35;35.17;;;19.23;;
38859;SDS011;24609;48.316;16.174;2024-01-10T10:46:02;34.53;;;19.55;;
38859;SDS011;24609;48.316;16.174;2024-01-10T10:48:32;36.20;;;21.20;;
38859;SDS011;24609;48.316;16.174;2024-01-10T10:53:32;37.92;;;20.67;;
38859;SDS011;24609;48.316;16.174;2024-01-10T10:55:59;38.83;;;21.50;;
38859;SDS011;24609;48.316;16.174;2024-01-10T10:58:27;37.55;;;20.48;;
38859;SDS011;24609;48.316;16.174;2024-01-10T11:00:53;31.85;;;18.45;;
38859;SDS011;24609;48.316;16.174;2024-01-10T11:03:20;41.13;;;24.25;;
38859;SDS011;24609;48.316;16.174;2024-01-10T11:05:46;38.42;;;22.08;;
38859;SDS011;24609;48.316;16.174;2024-01-10T11:08:13;39.15;;;22.05;;
38859;SDS011;24609;48.316;16.174;2024-01-10T11:10:42;36.70;;;20.83;;
38859;SDS011;24609;48.316;16.174;2024-01-10T11:13:23;34.97;;;20.23;;
38859;SDS011;24609;48.316;16.174;2024-01-10T11:25:09;33.55;;;19.58;;
38859;SDS011;24609;48.316;16.174;2024-01-10T11:27:36;36.08;;;21.98;;
38859;SDS011;24609;48.316;16.174;2024-01-10T11:30:02;36.63;;;20.42;;
38859;SDS011;24609;48.316;16.174;2024-01-10T11:32:30;36.50;;;22.35;;
38859;SDS011;24609;48.316;16.174;2024-01-10T11:34:57;36.92;;;20.70;;
38859;SDS011;24609;48.316;16.174;2024-01-10T11:37:27;38.55;;;21.92;;
38859;SDS011;24609;48.316;16.174;2024-01-10T11:42:44;37.00;;;21.33;;
38859;SDS011;24609;48.316;16.174;2024-01-10T11:47:56;48.00;;;25.05;;
38859;SDS011;24609;48.316;16.174;2024-01-10T11:50:22;43.75;;;24.98;;
38859;SDS011;24609;48.316;16.174;2024-01-10T11:52:52;45.58;;;24.70;;
38859;SDS011;24609;48.316;16.174;2024-01-10T11:58:17;43.93;;;25.43;;
38859;SDS011;24609;48.316;16.174;2024-01-10T12:00:42;44.03;;;24.15;;
38859;SDS011;24609;48.316;16.174;2024-01-10T12:03:09;46.70;;;24.35;;
38859;SDS011;24609;48.316;16.174;2024-01-10T12:05:37;43.10;;;24.13;;
38859;SDS011;24609;48.316;16.174;2024-01-10T12:08:07;45.85;;;24.70;;
38859;SDS011;24609;48.316;16.174;2024-01-10T12:10:33;43.17;;;23.83;;
38859;SDS011;24609;48.316;16.174;2024-01-10T12:13:02;44.33;;;24.55;;
38859;SDS011;24609;48.316;16.174;2024-01-10T12:15:29;43.63;;;24.08;;
38859;SDS011;24609;48.316;16.174;2024-01-10T12:17:55;43.42;;;23.98;;
38859;SDS011;24609;48.316;16.174;2024-01-10T12:20:20;44.63;;;24.10;;
38859;SDS011;24609;48.316;16.174;2024-01-10T12:22:46;43.80;;;23.75;;
38859;SDS011;24609;48.316;16.174;2024-01-10T12:25:12;38.95;;;21.85;;
38859;SDS011;24609;48.316;16.174;2024-01-10T12:27:38;39.28;;;22.38;;
38859;SDS011;24609;48.316;16.174;2024-01-10T12:30:04;43.53;;;22.88;;
38859;SDS011;24609;48.316;16.174;2024-01-10T12:32:30;38.88;;;22.05;;
38859;SDS011;24609;48.316;16.174;2024-01-10T12:35:03;37.35;;;20.52;;
38859;SDS011;24609;48.316;16.174;2024-01-10T12:37:30;41.17;;;21.30;;
38859;SDS011;24609;48.316;16.174;2024-01-10T12:39:56;35.47;;;22.15;;
38859;SDS011;24609;48.316;16.174;2024-01-10T12:42:22;35.00;;;19.63;;
38859;SDS011;24609;48.316;16.174;2024-01-10T12:44:49;33.72;;;20.83;;
38859;SDS011;24609;48.316;16.174;2024-01-10T12:47:21;39.45;;;20.45;;
38859;SDS011;24609;48.316;16.174;2024-01-10T12:49:48;35.97;;;20.02;;
38859;SDS011;24609;48.316;16.174;2024-01-10T12:52:14;35.85;;;21.00;;
38859;SDS011;24609;48.316;16.174;2024-01-10T12:54:40;37.75;;;21.27;;
38859;SDS011;24609;48.316;16.174;2024-01-10T12:57:06;35.15;;;19.35;;
38859;SDS011;24609;48.316;16.174;2024-01-10T12:59:35;33.83;;;18.85;;
38859;SDS011;24609;48.316;16.174;2024-01-10T13:02:00;34.22;;;20.05;;
38859;SDS011;24609;48.316;16.174;2024-01-10T13:04:26;33.33;;;19.30;;
38859;SDS011;24609;48.316;16.174;2024-01-10T13:06:52;41.15;;;20.20;;
38859;SDS011;24609;48.316;16.174;2024-01-10T13:09:17;33.72;;;19.02;;
38859;SDS011;24609;48.316;16.174;2024-01-10T13:11:43;34.17;;;19.95;;
38859;SDS011;24609;48.316;16.174;2024-01-10T13:14:10;36.45;;;20.80;;
38859;SDS011;24609;48.316;16.174;2024-01-10T13:16:37;39.95;;;22.17;;
38859;SDS011;24609;48.316;16.174;2024-01-10T13:19:03;34.35;;;19.67;;
38859;SDS011;24609;48.316;16.174;2024-01-10T13:21:28;34.17;;;18.95;;
38859;SDS011;24609;48.316;16.174;2024-01-10T13:23:54;34.33;;;19.25;;
38859;SDS011;24609;48.316;16.174;2024-01-10T13:26:20;35.38;;;18.75;;
38859;SDS011;24609;48.316;16.174;2024-01-10T13:28:46;36.63;;;20.23;;
38859;SDS011;24609;48.316;16.174;2024-01-10T13:31:11;35.30;;;19.92;;
38859;SDS011;24609;48.316;16.174;2024-01-10T13:33:37;37.45;;;20.17;;
38859;SDS011;24609;48.316;16.174;2024-01-10T13:36:03;36.17;;;20.17;;
38859;SDS011;24609;48.316;16.174;2024-01-10T13:38:29;33.35;;;19.73;;
38859;SDS011;24609;48.316;16.174;2024-01-10T13:40:56;34.17;;;19.75;;
38859;SDS011;24609;48.316;16.174;2024-01-10T13:43:21;38.30;;;20.58;;
38859;SDS011;24609;48.316;16.174;2024-01-10T13:45:47;37.63;;;20.35;;
38859;SDS011;24609;48.316;16.174;2024-01-10T13:48:13;36.65;;;21.20;;
38859;SDS011;24609;48.316;16.174;2024-01-10T13:50:38;35.65;;;19.83;;
38859;SDS011;24609;48.316;16.174;2024-01-10T13:53:04;37.65;;;20.95;;
38859;SDS011;24609;48.316;16.174;2024-01-10T13:55:30;40.47;;;22.38;;
38859;SDS011;24609;48.316;16.174;2024-01-10T13:57:56;36.42;;;20.90;;
38859;SDS011;24609;48.316;16.174;2024-01-10T14:00:22;39.50;;;20.98;;
38859;SDS011;24609;48.316;16.174;2024-01-10T14:02:48;36.80;;;20.60;;
38859;SDS011;24609;48.316;16.174;2024-01-10T14:05:14;37.58;;;21.05;;
38859;SDS011;24609;48.316;16.174;2024-01-10T14:07:40;43.80;;;21.60;;
38859;SDS011;24609;48.316;16.174;2024-01-10T14:10:15;37.95;;;21.17;;
38859;SDS011;24609;48.316;16.174;2024-01-10T14:12:40;36.17;;;20.00;;
38859;SDS011;24609;48.316;16.174;2024-01-10T14:15:06;37.00;;;19.10;;
38859;SDS011;24609;48.316;16.174;2024-01-10T14:17:34;42.97;;;21.83;;
38859;SDS011;24609;48.316;16.174;2024-01-10T14:20:00;37.28;;;20.80;;
38859;SDS011;24609;48.316;16.174;2024-01-10T14:22:26;38.40;;;21.02;;
38859;SDS011;24609;48.316;16.174;2024-01-10T14:24:51;37.50;;;21.10;;
38859;SDS011;24609;48.316;16.174;2024-01-10T14:27:19;35.17;;;20.77;;